createdAt,value
2018-05-16T00:02:24.360Z,6.60
2018-05-16T00:04:52.041Z,6.37
2018-05-16T00:07:19.736Z,6.07
2018-05-16T00:09:47.276Z,8.93
2018-05-16T00:12:14.907Z,6.23
2018-05-16T00:14:43.259Z,6.20
2018-05-16T00:17:10.998Z,5.93
2018-05-16T00:19:38.583Z,5.53
2018-05-16T00:22:06.483Z,5.83
2018-05-16T00:24:34.011Z,6.93
2018-05-16T00:27:01.586Z,9.73
2018-05-16T00:29:29.984Z,6.07
2018-05-16T00:31:58.307Z,5.80
2018-05-16T00:34:25.957Z,9.37
2018-05-16T00:36:53.633Z,6.60
2018-05-16T00:39:22.991Z,7.43
2018-05-16T00:41:51.055Z,6.63
2018-05-16T00:44:18.931Z,6.07
2018-05-16T00:46:46.472Z,6.37
2018-05-16T00:49:14.851Z,5.80
2018-05-16T00:51:42.493Z,6.47
2018-05-16T00:54:10.859Z,6.73
2018-05-16T00:56:38.387Z,7.03
2018-05-16T00:59:07.443Z,6.83
2018-05-16T01:01:35.312Z,7.90
2018-05-16T01:04:02.871Z,6.93
2018-05-16T01:06:30.411Z,6.53
2018-05-16T01:09:05.132Z,6.40
2018-05-16T01:11:33.555Z,6.90
2018-05-16T01:14:02.077Z,7.07
2018-05-16T01:16:29.604Z,7.00
2018-05-16T01:18:58.178Z,7.23
2018-05-16T01:21:25.703Z,7.47
2018-05-16T01:23:53.235Z,6.87
2018-05-16T01:26:21.303Z,8.10
2018-05-16T01:28:48.839Z,8.70
2018-05-16T01:31:17.206Z,7.03
2018-05-16T01:33:45.512Z,9.57
2018-05-16T01:36:14.223Z,7.20
2018-05-16T01:38:41.747Z,7.77
2018-05-16T01:41:09.291Z,8.90
2018-05-16T01:43:37.036Z,10.33
2018-05-16T01:46:05.974Z,7.43
2018-05-16T01:48:33.570Z,7.20
2018-05-16T01:51:01.200Z,10.03
2018-05-16T01:53:28.901Z,7.00
2018-05-16T01:55:56.442Z,9.60
2018-05-16T01:58:24.170Z,7.73
2018-05-16T02:00:51.886Z,7.63
2018-05-16T02:03:20.426Z,8.63
2018-05-16T02:05:47.957Z,10.20
2018-05-16T02:08:15.492Z,7.67
2018-05-16T02:10:43.462Z,8.00
2018-05-16T02:13:11.012Z,8.83
2018-05-16T02:15:38.572Z,9.13
2018-05-16T02:18:06.114Z,8.60
2018-05-16T02:20:34.436Z,8.70
2018-05-16T02:23:02.068Z,10.17
2018-05-16T02:25:29.719Z,9.20
2018-05-16T02:27:57.259Z,10.03
2018-05-16T02:30:24.933Z,9.17
2018-05-16T02:32:52.579Z,10.20
2018-05-16T02:35:21.082Z,9.83
2018-05-16T02:37:49.392Z,9.70
2018-05-16T02:40:16.935Z,9.97
2018-05-16T02:42:44.524Z,12.27
2018-05-16T02:45:12.074Z,9.90
2018-05-16T02:47:39.710Z,10.47
2018-05-16T02:50:07.227Z,10.40
2018-05-16T02:52:35.723Z,10.13
2018-05-16T02:55:04.050Z,10.13
2018-05-16T02:57:31.582Z,9.90
2018-05-16T03:00:00.059Z,10.73
2018-05-16T03:02:27.923Z,12.70
2018-05-16T03:04:55.464Z,10.10
2018-05-16T03:07:23.055Z,11.00
2018-05-16T03:09:51.025Z,10.80
2018-05-16T03:12:18.571Z,9.47
2018-05-16T03:14:46.255Z,10.73
2018-05-16T03:17:13.820Z,10.00
2018-05-16T03:19:41.403Z,11.27
2018-05-16T03:22:08.951Z,11.33
2018-05-16T03:24:37.296Z,11.23
2018-05-16T03:27:04.838Z,11.13
2018-05-16T03:29:32.371Z,11.80
2018-05-16T03:31:59.911Z,11.10
2018-05-16T03:34:27.507Z,10.23
2018-05-16T03:36:55.035Z,9.90
2018-05-16T03:39:22.567Z,9.80
2018-05-16T03:41:50.136Z,11.03
2018-05-16T03:44:17.678Z,10.90
2018-05-16T03:46:45.222Z,9.83
2018-05-16T03:49:12.962Z,11.93
2018-05-16T03:51:41.288Z,10.40
2018-05-16T03:54:08.827Z,11.00
2018-05-16T03:56:36.431Z,11.97
2018-05-16T03:59:16.703Z,11.00
2018-05-16T04:01:56.294Z,11.57
2018-05-16T04:04:23.835Z,12.03
2018-05-16T04:06:51.561Z,12.23
2018-05-16T04:09:19.968Z,11.83
2018-05-16T04:11:47.506Z,12.83
2018-05-16T04:14:15.104Z,12.47
2018-05-16T04:16:42.687Z,11.93
2018-05-16T04:19:10.986Z,11.07
2018-05-16T04:21:39.297Z,11.40
2018-05-16T04:24:06.838Z,12.10
2018-05-16T04:26:34.383Z,12.20
2018-05-16T04:29:01.947Z,12.50
2018-05-16T04:31:29.507Z,11.73
2018-05-16T04:33:57.038Z,11.97
2018-05-16T04:36:25.453Z,12.13
2018-05-16T04:38:53.754Z,12.80
2018-05-16T04:41:22.212Z,12.80
2018-05-16T04:43:50.696Z,12.70
2018-05-16T04:46:18.656Z,13.90
2018-05-16T04:48:46.228Z,11.07
2018-05-16T04:51:13.766Z,11.53
2018-05-16T04:53:41.339Z,11.67
2018-05-16T04:56:08.884Z,11.97
2018-05-16T04:58:37.182Z,9.90
2018-05-16T05:01:05.869Z,10.13
2018-05-16T05:03:34.179Z,10.30
2018-05-16T05:06:01.747Z,9.77
2018-05-16T05:08:29.303Z,9.97
2018-05-16T05:10:56.840Z,10.77
2018-05-16T05:13:24.389Z,11.00
2018-05-16T05:15:52.335Z,11.37
2018-05-16T05:18:20.862Z,10.90
2018-05-16T05:20:49.048Z,14.07
2018-05-16T05:23:16.596Z,11.83
2018-05-16T05:25:44.910Z,10.30
2018-05-16T05:28:12.447Z,9.60
2018-05-16T05:30:39.990Z,13.47
2018-05-16T05:33:07.534Z,11.23
2018-05-16T05:35:35.076Z,8.37
2018-05-16T05:38:03.380Z,8.63
2018-05-16T05:40:30.915Z,10.83
2018-05-16T05:42:58.524Z,11.13
2018-05-16T05:45:26.051Z,9.17
2018-05-16T05:47:53.600Z,17.10
2018-05-16T05:50:21.148Z,14.93
2018-05-16T05:52:48.700Z,12.13
2018-05-16T05:55:17.011Z,9.50
2018-05-16T05:57:44.843Z,7.93
2018-05-16T06:00:12.468Z,8.63
2018-05-16T06:02:39.967Z,8.47
2018-05-16T06:05:07.519Z,9.43
2018-05-16T06:07:35.229Z,8.97
2018-05-16T06:10:03.503Z,8.20
2018-05-16T06:12:31.048Z,8.90
2018-05-16T06:14:58.703Z,9.03
2018-05-16T06:17:27.111Z,9.60
2018-05-16T06:19:55.505Z,9.17
2018-05-16T06:22:22.979Z,12.17
2018-05-16T06:24:51.069Z,10.20
2018-05-16T06:27:18.711Z,10.03
2018-05-16T06:29:46.922Z,11.37
2018-05-16T06:32:14.480Z,10.90
2018-05-16T06:34:42.804Z,11.90
2018-05-16T06:37:10.341Z,11.87
2018-05-16T06:39:38.649Z,13.00
2018-05-16T06:42:06.418Z,13.40
2018-05-16T06:44:33.974Z,14.40
2018-05-16T06:47:02.550Z,15.60
2018-05-16T06:49:30.114Z,14.53
2018-05-16T06:51:57.699Z,16.23
2018-05-16T06:54:25.440Z,16.50
2018-05-16T06:56:52.981Z,16.33
2018-05-16T06:59:20.773Z,16.53
2018-05-16T07:01:48.335Z,16.27
2018-05-16T07:04:15.876Z,15.73
2018-05-16T07:06:44.948Z,17.80
2018-05-16T07:09:12.635Z,19.53
2018-05-16T07:11:40.174Z,16.90
2018-05-16T07:14:07.709Z,17.77
2018-05-16T07:16:36.032Z,19.17
2018-05-16T07:19:03.568Z,19.23
2018-05-16T07:21:31.112Z,19.57
2018-05-16T07:23:58.795Z,22.77
2018-05-16T07:26:26.363Z,20.00
2018-05-16T07:28:53.903Z,21.23
2018-05-16T07:31:21.599Z,20.13
2018-05-16T07:33:49.154Z,20.77
2018-05-16T07:36:16.708Z,23.23
2018-05-16T07:38:45.009Z,20.07
2018-05-16T07:41:12.596Z,23.37
2018-05-16T07:43:40.878Z,21.30
2018-05-16T07:46:08.428Z,22.10
2018-05-16T07:48:36.839Z,20.07
2018-05-16T07:51:04.371Z,19.83
2018-05-16T07:53:31.924Z,19.20
2018-05-16T07:55:59.695Z,21.17
2018-05-16T07:58:27.173Z,18.90
2018-05-16T08:00:54.716Z,18.40
2018-05-16T08:03:22.302Z,19.23
2018-05-16T08:05:49.827Z,18.43
2018-05-16T08:08:18.155Z,18.30
2018-05-16T08:10:45.731Z,17.10
2018-05-16T08:13:13.319Z,17.37
2018-05-16T08:15:40.860Z,17.03
2018-05-16T08:18:08.435Z,18.33
2018-05-16T08:20:36.238Z,18.60
2018-05-16T08:23:03.802Z,20.77
2018-05-16T08:25:31.629Z,18.37
2018-05-16T08:27:59.941Z,21.33
2018-05-16T08:30:28.079Z,16.70
2018-05-16T08:32:55.615Z,15.70
2018-05-16T08:35:25.014Z,16.93
2018-05-16T08:37:53.332Z,16.47
2018-05-16T08:40:21.103Z,17.30
2018-05-16T08:42:48.813Z,17.03
2018-05-16T08:45:16.348Z,17.83
2018-05-16T08:47:44.116Z,18.23
2018-05-16T08:50:11.681Z,17.57
2018-05-16T08:52:39.217Z,16.80
2018-05-16T08:55:06.782Z,17.67
2018-05-16T08:57:34.348Z,18.27
2018-05-16T09:00:01.927Z,17.63
2018-05-16T09:02:29.615Z,17.03
2018-05-16T09:04:58.781Z,18.13
2018-05-16T09:07:26.342Z,17.30
2018-05-16T09:09:53.882Z,16.57
2018-05-16T09:12:22.199Z,21.00
2018-05-16T09:14:49.777Z,17.40
2018-05-16T09:17:17.387Z,16.93
2018-05-16T09:19:44.916Z,16.60
2018-05-16T09:22:12.478Z,18.17
2018-05-16T09:24:40.784Z,15.87
2018-05-16T09:27:08.347Z,14.13
2018-05-16T09:29:36.055Z,14.00
2018-05-16T09:32:03.730Z,16.90
2018-05-16T09:34:32.526Z,14.87
2018-05-16T09:37:00.095Z,16.07
2018-05-16T09:39:27.715Z,13.97
2018-05-16T09:41:55.365Z,15.63
2018-05-16T09:44:22.931Z,17.03
2018-05-16T09:46:50.507Z,14.93
2018-05-16T09:49:18.048Z,15.20
2018-05-16T09:51:45.712Z,16.83
2018-05-16T09:54:14.083Z,14.80
2018-05-16T09:56:41.618Z,16.23
2018-05-16T09:59:09.159Z,15.73
2018-05-16T10:01:36.820Z,16.10
2018-05-16T10:04:05.130Z,14.67
2018-05-16T10:06:32.823Z,13.97
2018-05-16T10:09:00.391Z,13.93
2018-05-16T10:11:28.287Z,18.30
2018-05-16T10:13:55.835Z,18.13
2018-05-16T10:16:23.375Z,14.63
2018-05-16T10:18:51.775Z,12.40
2018-05-16T10:21:20.102Z,12.40
2018-05-16T10:23:47.689Z,12.77
2018-05-16T10:26:15.710Z,15.33
2018-05-16T10:28:44.357Z,13.97
2018-05-16T10:31:11.900Z,16.13
2018-05-16T10:33:39.439Z,15.63
2018-05-16T10:36:07.157Z,10.57
2018-05-16T10:38:34.703Z,14.37
2018-05-16T10:41:03.026Z,14.10
2018-05-16T10:43:30.568Z,16.50
2018-05-16T10:45:58.892Z,15.70
2018-05-16T10:48:26.432Z,14.67
2018-05-16T10:50:54.759Z,15.23
2018-05-16T10:53:22.475Z,14.47
2018-05-16T10:55:50.021Z,15.40
2018-05-16T10:58:17.571Z,17.20
2018-05-16T11:00:45.875Z,16.57
2018-05-16T11:03:14.226Z,16.33
2018-05-16T11:05:41.675Z,17.30
2018-05-16T11:08:09.226Z,18.17
2018-05-16T11:10:36.885Z,18.83
2018-05-16T11:13:04.415Z,18.93
2018-05-16T11:15:32.728Z,15.47
2018-05-16T11:18:00.276Z,15.47
2018-05-16T11:20:28.611Z,15.53
2018-05-16T11:22:56.159Z,16.07
2018-05-16T11:25:23.719Z,16.30
2018-05-16T11:27:52.031Z,15.30
2018-05-16T11:30:19.570Z,15.93
2018-05-16T11:32:47.936Z,13.40
2018-05-16T11:35:15.483Z,14.10
2018-05-16T11:37:43.077Z,16.90
2018-05-16T11:40:10.639Z,10.67
2018-05-16T11:42:38.213Z,10.67
2018-05-16T11:45:05.800Z,15.70
2018-05-16T11:47:33.363Z,15.20
2018-05-16T11:50:00.907Z,14.53
2018-05-16T11:52:28.723Z,14.20
2018-05-16T11:54:56.302Z,14.83
2018-05-16T11:57:23.846Z,13.47
2018-05-16T11:59:51.462Z,13.17
2018-05-16T12:02:21.864Z,14.87
2018-05-16T12:04:49.411Z,18.97
2018-05-16T12:07:16.955Z,16.90
2018-05-16T12:09:45.276Z,18.87
2018-05-16T12:12:12.815Z,20.13
2018-05-16T12:14:41.275Z,17.50
2018-05-16T12:17:08.721Z,19.47
2018-05-16T12:19:36.286Z,18.63
2018-05-16T12:22:03.859Z,21.63
2018-05-16T12:24:31.399Z,19.53
2018-05-16T12:26:59.774Z,18.47
2018-05-16T12:29:27.335Z,18.33
2018-05-16T12:31:54.899Z,17.27
2018-05-16T12:34:22.444Z,16.97
2018-05-16T12:36:50.022Z,16.87
2018-05-16T12:39:17.569Z,13.97
2018-05-16T12:41:45.906Z,13.33
2018-05-16T12:44:13.580Z,12.93
2018-05-16T12:46:41.233Z,12.97
2018-05-16T12:49:08.684Z,15.23
2018-05-16T12:51:36.284Z,11.50
2018-05-16T12:54:03.851Z,10.57
2018-05-16T12:56:31.390Z,10.63
2018-05-16T12:58:59.727Z,11.67
2018-05-16T13:01:27.298Z,11.60
2018-05-16T13:03:54.815Z,13.10
2018-05-16T13:06:22.372Z,13.30
2018-05-16T13:08:49.932Z,16.40
2018-05-16T13:11:17.541Z,15.77
2018-05-16T13:13:45.042Z,15.00
2018-05-16T13:16:12.590Z,15.07
2018-05-16T13:18:40.922Z,17.23
2018-05-16T13:21:08.659Z,21.23
2018-05-16T13:23:37.172Z,19.00
2018-05-16T13:26:04.707Z,15.27
2018-05-16T13:28:32.263Z,18.40
2018-05-16T13:30:59.899Z,16.53
2018-05-16T13:33:27.448Z,17.50
2018-05-16T13:35:55.762Z,16.30
2018-05-16T13:38:23.312Z,16.93
2018-05-16T13:40:51.683Z,14.97
2018-05-16T13:43:20.332Z,14.63
2018-05-16T13:45:47.940Z,13.40
2018-05-16T13:48:15.699Z,13.70
2018-05-16T13:50:43.503Z,14.27
2018-05-16T13:53:11.043Z,11.30
2018-05-16T13:55:38.607Z,11.10
2018-05-16T13:58:06.286Z,10.63
2018-05-16T14:00:33.840Z,10.87
2018-05-16T14:03:01.739Z,11.43
2018-05-16T14:05:29.306Z,11.70
2018-05-16T14:07:56.856Z,13.17
2018-05-16T14:10:25.207Z,11.10
2018-05-16T14:12:52.750Z,12.10
2018-05-16T14:15:20.561Z,12.00
2018-05-16T14:17:48.792Z,10.00
2018-05-16T14:20:16.355Z,13.83
2018-05-16T14:22:44.745Z,11.40
2018-05-16T14:25:13.090Z,9.80
2018-05-16T14:27:40.918Z,10.90
2018-05-16T14:30:09.211Z,11.27
2018-05-16T14:32:36.839Z,9.93
2018-05-16T14:35:04.411Z,9.77
2018-05-16T14:37:31.931Z,9.60
2018-05-16T14:39:59.636Z,9.97
2018-05-16T14:42:27.201Z,9.37
2018-05-16T14:44:54.787Z,10.63
2018-05-16T14:47:22.366Z,11.83
2018-05-16T14:49:49.907Z,15.33
2018-05-16T14:52:17.466Z,12.33
2018-05-16T14:54:46.971Z,15.23
2018-05-16T14:57:15.335Z,14.43
2018-05-16T14:59:43.047Z,14.50
2018-05-16T15:02:11.379Z,13.50
2018-05-16T15:04:38.920Z,11.83
2018-05-16T15:07:07.467Z,13.80
2018-05-16T15:09:35.004Z,13.57
2018-05-16T15:12:02.554Z,13.23
2018-05-16T15:14:30.103Z,14.47
2018-05-16T15:16:57.667Z,13.87
2018-05-16T15:19:25.211Z,14.17
2018-05-16T15:21:52.806Z,15.37
2018-05-16T15:24:20.425Z,14.33
2018-05-16T15:26:48.759Z,14.33
2018-05-16T15:29:16.305Z,14.00
2018-05-16T15:31:44.003Z,15.83
2018-05-16T15:34:11.591Z,14.60
2018-05-16T15:36:39.132Z,14.70
2018-05-16T15:39:06.751Z,15.87
2018-05-16T15:41:34.308Z,14.63
2018-05-16T15:44:01.872Z,13.57
2018-05-16T15:46:29.512Z,13.97
2018-05-16T15:48:57.075Z,13.27
2018-05-16T15:51:25.404Z,12.40
2018-05-16T15:53:52.952Z,11.90
2018-05-16T15:56:20.727Z,11.40
2018-05-16T15:58:48.268Z,13.37
2018-05-16T16:01:15.808Z,10.90
2018-05-16T16:03:43.549Z,10.07
2018-05-16T16:06:11.088Z,9.07
2018-05-16T16:08:38.657Z,10.00
2018-05-16T16:11:06.340Z,9.73
2018-05-16T16:13:34.032Z,9.07
2018-05-16T16:16:02.371Z,8.20
2018-05-16T16:18:29.913Z,8.77
2018-05-16T16:20:57.485Z,9.37
2018-05-16T16:23:25.015Z,9.23
2018-05-16T16:25:53.318Z,9.13
2018-05-16T16:28:21.671Z,11.87
2018-05-16T16:30:49.211Z,10.20
2018-05-16T16:33:16.759Z,10.20
2018-05-16T16:35:45.277Z,10.90
2018-05-16T16:38:13.639Z,12.50
2018-05-16T16:40:41.163Z,10.10
2018-05-16T16:43:08.744Z,9.60
2018-05-16T16:45:37.036Z,9.83
2018-05-16T16:48:04.603Z,9.37
2018-05-16T16:50:32.297Z,10.23
2018-05-16T16:53:00.470Z,10.37
2018-05-16T16:55:28.130Z,9.03
2018-05-16T16:57:55.663Z,9.33
2018-05-16T17:00:23.968Z,14.90
2018-05-16T17:02:51.659Z,9.17
2018-05-16T17:05:19.214Z,10.60
2018-05-16T17:07:47.514Z,8.77
2018-05-16T17:10:15.215Z,10.23
2018-05-16T17:12:42.759Z,12.40
2018-05-16T17:15:10.326Z,12.17
2018-05-16T17:17:37.845Z,14.03
2018-05-16T17:20:05.418Z,12.37
2018-05-16T17:22:32.948Z,13.93
2018-05-16T17:25:01.273Z,10.83
2018-05-16T17:27:28.907Z,12.40
2018-05-16T17:29:57.216Z,11.80
2018-05-16T17:32:24.761Z,12.63
2018-05-16T17:34:53.063Z,9.20
2018-05-16T17:37:20.641Z,13.07
2018-05-16T17:39:48.187Z,15.67
2018-05-16T17:42:15.735Z,19.77
2018-05-16T17:44:43.313Z,24.77
2018-05-16T17:47:10.847Z,14.63
2018-05-16T17:49:38.509Z,15.13
2018-05-16T17:52:06.814Z,13.43
2018-05-16T17:54:34.351Z,15.30
2018-05-16T17:57:02.662Z,9.40
2018-05-16T17:59:30.963Z,10.57
2018-05-16T18:01:59.074Z,11.60
2018-05-16T18:04:26.604Z,8.87
2018-05-16T18:06:54.159Z,7.10
2018-05-16T18:09:22.471Z,8.03
2018-05-16T18:11:50.024Z,7.73
2018-05-16T18:17:34.872Z,11.47
2018-05-16T18:20:02.932Z,11.73
2018-05-16T18:22:31.237Z,13.07
2018-05-16T18:24:58.916Z,13.93
2018-05-16T18:27:26.489Z,13.53
2018-05-16T18:29:54.164Z,14.33
2018-05-16T18:32:22.725Z,14.20
2018-05-16T18:34:51.364Z,14.77
2018-05-16T18:37:19.010Z,14.77
2018-05-16T18:39:48.270Z,15.83
2018-05-16T18:42:15.805Z,17.00
2018-05-16T18:44:43.297Z,15.00
2018-05-16T18:47:10.902Z,15.33
2018-05-16T18:49:38.656Z,13.70
2018-05-16T18:52:06.607Z,14.57
2018-05-16T18:54:34.067Z,14.63
2018-05-16T18:57:02.688Z,11.90
2018-05-16T18:59:30.400Z,12.37
2018-05-16T19:01:57.959Z,14.50
2018-05-16T19:04:25.606Z,13.10
2018-05-16T19:06:53.961Z,13.53
2018-05-16T19:09:21.527Z,13.10
2018-05-16T19:11:49.075Z,12.70
2018-05-16T19:14:16.705Z,16.20
2018-05-16T19:16:44.208Z,13.83
2018-05-16T19:19:11.866Z,16.03
2018-05-16T19:21:39.398Z,13.17
2018-05-16T19:24:06.952Z,15.93
2018-05-16T19:26:34.499Z,15.90
2018-05-16T19:29:02.039Z,13.03
2018-05-16T19:31:30.374Z,13.17
2018-05-16T19:33:57.919Z,13.37
2018-05-16T19:36:25.488Z,12.63
2018-05-16T19:38:53.055Z,13.10
2018-05-16T19:41:20.666Z,16.70
2018-05-16T19:43:48.211Z,14.67
2018-05-16T19:46:15.784Z,13.00
2018-05-16T19:48:44.232Z,13.73
2018-05-16T19:51:11.775Z,15.03
2018-05-16T19:53:39.317Z,13.57
2018-05-16T19:56:06.979Z,12.33
2018-05-16T19:58:35.347Z,14.03
2018-05-16T20:01:02.826Z,13.23
2018-05-16T20:03:30.375Z,12.07
2018-05-16T20:05:57.936Z,12.47
2018-05-16T20:08:25.471Z,13.03
2018-05-16T20:10:53.782Z,12.07
2018-05-16T20:13:21.440Z,12.90
2018-05-16T20:15:49.765Z,12.77
2018-05-16T20:18:17.303Z,12.87
2018-05-16T20:20:44.936Z,14.83
2018-05-16T20:23:12.479Z,13.03
2018-05-16T20:25:40.016Z,13.10
2018-05-16T20:28:07.716Z,13.63
2018-05-16T20:30:35.252Z,16.77
2018-05-16T20:33:03.570Z,16.27
2018-05-16T20:35:31.114Z,14.80
2018-05-16T20:37:59.439Z,14.43
2018-05-16T20:40:26.980Z,14.77
2018-05-16T20:42:55.443Z,14.47
2018-05-16T20:45:23.061Z,16.03
2018-05-16T20:47:50.541Z,16.33
2018-05-16T20:50:18.080Z,16.80
2018-05-16T20:52:46.392Z,15.20
2018-05-16T20:55:14.136Z,14.63
2018-05-16T20:57:41.682Z,18.50
2018-05-16T21:00:09.218Z,16.67
2018-05-16T21:02:36.781Z,17.53
2018-05-16T21:05:05.090Z,20.07
2018-05-16T21:07:32.623Z,16.17
2018-05-16T21:10:01.931Z,17.40
2018-05-16T21:12:29.475Z,12.40
2018-05-16T21:14:57.019Z,15.33
2018-05-16T21:17:24.559Z,14.20
2018-05-16T21:19:53.603Z,15.50
2018-05-16T21:22:21.619Z,15.50
2018-05-16T21:24:49.187Z,18.37
2018-05-16T21:27:16.724Z,14.57
2018-05-16T21:29:44.295Z,14.90
2018-05-16T21:32:11.840Z,14.20
2018-05-16T21:34:40.159Z,13.53
2018-05-16T21:37:07.827Z,12.67
2018-05-16T21:39:35.380Z,9.63
2018-05-16T21:42:02.941Z,11.67
2018-05-16T21:44:30.486Z,9.67
2018-05-16T21:46:58.044Z,10.33
2018-05-16T21:49:25.574Z,7.93
2018-05-16T21:51:53.132Z,10.73
2018-05-16T21:54:20.753Z,10.80
2018-05-16T21:56:48.288Z,8.33
2018-05-16T21:59:15.852Z,6.80
2018-05-16T22:01:43.579Z,5.97
2018-05-16T22:04:11.135Z,5.90
2018-05-16T22:06:38.672Z,5.67
2018-05-16T22:09:06.207Z,5.93
2018-05-16T22:11:33.745Z,5.63
2018-05-16T22:14:01.284Z,7.57
2018-05-16T22:16:29.060Z,4.67
2018-05-16T22:18:56.596Z,5.27
2018-05-16T22:21:24.135Z,4.00
2018-05-16T22:23:52.112Z,5.20
2018-05-16T22:26:19.624Z,4.90
2018-05-16T22:28:47.151Z,3.90
2018-05-16T22:31:21.598Z,4.40
2018-05-16T22:33:55.628Z,6.37
2018-05-16T22:36:29.082Z,4.47
2018-05-16T22:39:02.595Z,4.30
2018-05-16T22:41:36.344Z,4.93
2018-05-16T22:44:07.391Z,3.70
2018-05-16T22:46:34.943Z,3.60
2018-05-16T22:49:02.479Z,3.70
2018-05-16T22:51:30.398Z,5.03
2018-05-16T22:53:58.048Z,4.53
2018-05-16T22:56:25.601Z,4.03
2018-05-16T22:58:53.994Z,4.33
2018-05-16T23:01:21.575Z,3.50
2018-05-16T23:03:49.191Z,3.33
2018-05-16T23:06:16.811Z,2.90
2018-05-16T23:08:44.391Z,3.43
2018-05-16T23:11:11.913Z,2.70
2018-05-16T23:13:39.610Z,3.40
2018-05-16T23:16:08.055Z,2.73
2018-05-16T23:18:35.642Z,3.53
2018-05-16T23:21:03.471Z,3.93
2018-05-16T23:23:31.772Z,2.73
2018-05-16T23:25:59.402Z,2.73
2018-05-16T23:28:26.948Z,6.13
2018-05-16T23:30:54.505Z,2.70
2018-05-16T23:33:22.885Z,2.80
2018-05-16T23:35:50.403Z,2.93
2018-05-16T23:38:17.955Z,2.67
2018-05-16T23:40:45.744Z,4.70
2018-05-16T23:43:13.305Z,3.37
2018-05-16T23:45:40.887Z,3.33
2018-05-16T23:48:08.433Z,2.60
2018-05-16T23:50:36.651Z,2.77
2018-05-16T23:53:04.347Z,3.20
2018-05-16T23:55:32.040Z,3.47
2018-05-16T23:58:00.463Z,5.67
